Toronto, Ontario

05:44 AM EDT die 25o September, anno 2017 (GMT -0400)
Rapids Queen at QCYC | | Change Station

Elev 252 ft 43.63 °N, 79.36 °W | Updated 3 minutes ago

Clear
Serena
74.2 °F
Feels Like 77 °F
N
0.0
Ventus Variabilis Ventus from Magis Eurus quam Auster

Hodie
High -- | Low -- °F
--% Chance of Precip.
Yesterday
High -- | Low -- °F
Precip. -- in
Pressio 30.07 in
Visibilitas 9.0 milia passuum
Clouds Serena
Index Caloris 77 °F
Frigus in quo Ros apparet 39 °F
Umor 28%
Rainfall 0.00 in
Snow Depth Not available.
7:08 AM 7:08 PM
Waxing Crescent, 25% visible
METAR CYTZ 250900Z AUTO 12004KT 9SM CLR 22/20 A3006 RMK SLP181 DENSITY ALT 900FT
Pressio 30.07 in
Visibilitas 9.0 milia passuum
Clouds Serena
Index Caloris 77 °F
Frigus in quo Ros apparet 39 °F
Umor 28%
Rainfall 0.00 in
Snow Depth Not available.
7:08 AM 7:08 PM
Waxing Crescent, 25% visible
METAR CYTZ 250900Z AUTO 12004KT 9SM CLR 22/20 A3006 RMK SLP181 DENSITY ALT 900FT

Get Severe Weather Alerts

Thanks for signing up!

Be on the lookout for a verification email in your inbox.

You'll start receiving the daily forecast at 6 AM.

×

10-Day Weather Forecast

Almanac

Astronomy

Sep. 25, 2017 Rise Set
Actual Time
Civil Twilight
Nautical Twilight
Astronomical Twilight
Moon
Length Of Visible Light
Length of Day
Tomorrow will be .
, % of the Moon is Illuminated

Today's Extremes

Country Highs Country Lows

Community

WunderPhotos

Category 6

Welcome to Category 6. This is the collective home for Weather Underground's featured writeups by Dr. Jeff Masters (right), Bob Henson (left), Chris Burt, and other regular contributors.

Nearby

Air Quality

  Air Quality AQ Index Pollutant
Not available.

Snow Depth

Station Depth Elevation

Earthquake Activity

City Distance Mag. Time & Date
Minimum magnitude displayed is 2.5.

Coastal Water Temperatures

Locus Calor

Stations

Nearby Weather Stations

Station Location Temp Frigus Venti Frigus in quo Ros apparet Umor Ventus Precip. Elev Renovata Type
                   

Watches & Warnings

There are currently no watches in effect.